Time;durP1;ratioP1;P1;durP2;ratioP2;P2;SDS_P1;SDS_P2;PMS_P1;PMS_P2;Temp;Humidity;BMP_temperature;BMP_pressure;BME280_temperature;BME280_humidity;BME280_pressure;Samples;Min_cycle;Max_cycle;Signal;HPM_P1;HPM_P2
2023/06/04 00:00:47;;;;;;;3.10;1.70;;;;;;;13.42;54.10;101938.16;5041829;28;20524;-86
2023/06/04 00:03:13;;;;;;;4.13;1.75;;;;;;;13.37;55.08;101938.78;5041086;28;20392;-86
2023/06/04 00:05:38;;;;;;;2.70;1.40;;;;;;;13.41;55.20;101945.50;5076020;28;20033;-87
2023/06/04 00:08:04;;;;;;;11.77;1.70;;;;;;;13.30;54.87;101929.72;5075645;28;20377;-87
2023/06/04 00:10:30;;;;;;;4.43;1.50;;;;;;;13.33;55.38;101945.66;5056982;28;20047;-86
2023/06/04 00:12:56;;;;;;;4.33;1.40;;;;;;;13.25;55.67;101938.50;5075006;28;20039;-87
2023/06/04 00:15:22;;;;;;;5.65;1.70;;;;;;;13.21;56.15;101925.50;5040955;28;20033;-86
2023/06/04 00:17:47;;;;;;;3.60;1.40;;;;;;;13.18;56.86;101925.94;5057498;28;20028;-87
2023/06/04 00:20:13;;;;;;;3.75;1.38;;;;;;;13.16;57.00;101932.41;5040139;28;20143;-87
2023/06/04 00:22:41;;;;;;;2.37;1.43;;;;;;;13.14;56.85;101939.97;5075101;28;20058;-87
2023/06/04 00:25:07;;;;;;;3.15;1.63;;;;;;;13.08;57.33;101926.31;5057370;28;20385;-87
2023/06/04 00:27:36;;;;;;;3.07;1.60;;;;;;;13.09;58.08;101933.44;5057080;28;20052;-86
2023/06/04 00:30:03;;;;;;;3.72;1.80;;;;;;;13.06;58.28;101933.88;5057529;28;20036;-87
2023/06/04 00:32:31;;;;;;;2.40;1.52;;;;;;;13.07;58.37;101946.44;5057226;28;20083;-87
2023/06/04 00:35:00;;;;;;;5.55;1.67;;;;;;;12.93;58.80;101932.78;5057414;28;20039;-87
2023/06/04 00:37:28;;;;;;;2.53;1.60;;;;;;;12.89;59.23;101931.53;5056928;28;20044;-87
2023/06/04 00:39:54;;;;;;;2.63;1.70;;;;;;;12.86;58.63;101926.47;5056864;28;20035;-87
2023/06/04 00:42:19;;;;;;;2.72;1.33;;;;;;;12.90;59.44;101938.66;5040496;28;20119;-87
2023/06/04 00:44:45;;;;;;;3.67;1.50;;;;;;;12.86;59.37;101934.66;5056555;28;20024;-87
2023/06/04 00:47:15;;;;;;;2.38;1.38;;;;;;;12.79;59.30;101929.16;5056958;28;20070;-87
2023/06/04 00:49:41;;;;;;;6.43;1.80;;;;;;;12.72;59.91;101922.84;5056890;28;20028;-87
2023/06/04 00:52:10;;;;;;;5.28;1.70;;;;;;;12.72;60.11;101931.03;5056781;28;20115;-87
2023/06/04 00:54:36;;;;;;;4.93;1.48;;;;;;;12.72;60.59;101931.03;5056443;28;20032;-87
2023/06/04 00:57:02;;;;;;;4.53;1.60;;;;;;;12.72;60.57;101931.03;5074690;28;20465;-87
2023/06/04 00:59:33;;;;;;;3.97;1.30;;;;;;;12.68;60.76;101926.19;5056715;28;20038;-87
2023/06/04 01:02:15;;;;;;;4.63;1.73;;;;;;;12.68;61.34;101935.22;5040428;28;20392;-87
2023/06/04 01:05:23;;;;;;;5.47;1.30;;;;;;;12.64;59.37;101936.66;5056681;28;20036;-86
2023/06/04 01:07:50;;;;;;;3.17;1.15;;;;;;;12.59;61.50;101941.84;5074117;28;20040;-86
2023/06/04 01:10:15;;;;;;;1.88;1.20;;;;;;;12.52;62.31;101933.66;5057002;28;20372;-87
2023/06/04 01:12:41;;;;;;;3.87;1.37;;;;;;;12.46;62.36;101942.66;5074264;28;20032;-86
2023/06/04 01:15:08;;;;;;;4.60;1.65;;;;;;;12.43;62.22;101940.31;5056443;28;20025;-87
2023/06/04 01:17:38;;;;;;;4.25;1.70;;;;;;;12.43;62.50;101943.88;5056064;28;20388;-86
2023/06/04 01:20:22;;;;;;;4.07;1.63;;;;;;;12.40;61.84;101948.88;5056294;28;20368;-87
2023/06/04 01:22:59;;;;;;;3.17;1.30;;;;;;;12.38;63.47;101950.97;5055633;28;20025;-87
2023/06/04 01:25:33;;;;;;;4.25;1.40;;;;;;;12.33;63.29;101950.72;5073849;28;20423;-87
2023/06/04 01:28:03;;;;;;;4.75;1.52;;;;;;;12.31;63.98;101950.09;5074660;28;20056;-87
2023/06/04 01:30:34;;;;;;;3.60;1.38;;;;;;;12.26;64.11;101945.25;5073856;28;20043;-87
2023/06/04 01:33:02;;;;;;;6.03;1.30;;;;;;;12.24;64.36;101947.34;5074073;28;20028;-87
2023/06/04 01:35:28;;;;;;;5.97;1.33;;;;;;;12.26;64.98;101956.13;5057225;28;20457;-87
2023/06/04 01:38:00;;;;;;;5.72;1.35;;;;;;;12.21;65.35;101947.72;5039463;28;20040;-87
2023/06/04 01:40:26;;;;;;;3.28;1.30;;;;;;;12.09;65.09;101942.84;5073641;28;20036;-87
2023/06/04 01:42:52;;;;;;;2.73;1.10;;;;;;;12.07;65.29;101938.63;5073686;28;20029;-87
2023/06/04 01:45:17;;;;;;;6.75;1.42;;;;;;;12.10;65.25;101951.81;5074219;28;20070;-87
2023/06/04 01:47:43;;;;;;;4.73;1.67;;;;;;;12.00;65.96;101938.59;5055870;28;20392;-87
2023/06/04 01:50:12;;;;;;;2.47;1.17;;;;;;;12.04;66.35;101948.03;5039335;28;20283;-87
2023/06/04 01:52:39;;;;;;;3.60;1.20;;;;;;;11.94;65.80;101936.66;5055651;28;20025;-87
2023/06/04 01:55:07;;;;;;;2.63;1.23;;;;;;;11.98;66.80;101946.09;5039260;28;20078;-87
2023/06/04 01:57:33;;;;;;;2.63;1.30;;;;;;;11.90;67.19;101941.63;5056010;28;20102;-87
2023/06/04 01:59:58;;;;;;;3.97;1.35;;;;;;;11.92;67.33;101953.13;5055788;28;20040;-87
2023/06/04 02:02:25;;;;;;;4.60;1.40;;;;;;;11.88;68.79;101951.00;5038919;28;20032;-87
2023/06/04 02:04:51;;;;;;;4.68;1.20;;;;;;;11.83;68.30;101953.50;5040007;28;20056;-87
2023/06/04 02:07:20;;;;;;;5.47;1.45;;;;;;;11.79;68.03;101949.47;5055430;28;20032;-87
2023/06/04 02:09:46;;;;;;;4.07;1.30;;;;;;;11.72;68.55;101950.28;5056124;28;20034;-87
2023/06/04 02:12:14;;;;;;;3.87;1.37;;;;;;;11.71;68.72;101951.28;5055964;28;20112;-87
2023/06/04 02:14:41;;;;;;;3.03;1.30;;;;;;;11.66;68.69;101945.63;5055819;28;20120;-87
2023/06/04 02:17:12;;;;;;;5.88;1.38;;;;;;;11.61;68.95;101945.34;5038918;28;20072;-87
2023/06/04 02:19:44;;;;;;;7.00;1.45;;;;;;;11.64;68.71;101947.66;5073571;28;20086;-87
2023/06/04 02:22:12;;;;;;;3.17;1.45;;;;;;;11.65;68.90;101949.38;5040432;28;20043;-87
2023/06/04 02:24:38;;;;;;;2.63;1.40;;;;;;;11.59;68.85;101939.28;5056040;28;20033;-87
2023/06/04 02:27:06;;;;;;;4.35;1.70;;;;;;;11.56;69.40;101940.50;5073037;28;20041;-87
2023/06/04 02:29:31;;;;;;;5.30;1.50;;;;;;;11.49;71.82;101942.31;5073398;28;20040;-88
2023/06/04 02:31:57;;;;;;;3.60;1.30;;;;;;;11.50;72.18;101945.88;5038809;28;20037;-87
2023/06/04 02:34:25;;;;;;;3.00;1.50;;;;;;;11.46;72.24;101941.88;5074123;28;20508;-87
2023/06/04 02:36:51;;;;;;;4.37;1.30;;;;;;;11.41;72.30;101947.88;5059475;28;20279;-87
2023/06/04 02:39:17;;;;;;;6.38;1.30;;;;;;;11.37;71.35;101947.44;5059432;28;20107;-87
2023/06/04 02:41:43;;;;;;;4.03;1.37;;;;;;;11.38;71.32;101946.41;5059359;28;20040;-87
2023/06/04 02:44:08;;;;;;;4.55;1.23;;;;;;;11.38;71.30;101949.13;5042352;28;20400;-82
2023/06/04 02:46:33;;;;;;;5.53;1.53;;;;;;;11.36;71.56;101958.50;5059033;28;20040;-82
2023/06/04 02:48:59;;;;;;;4.63;1.30;;;;;;;11.33;71.68;101956.16;5077656;28;20124;-82
2023/06/04 02:51:25;;;;;;;2.60;1.43;;;;;;;11.30;71.71;101948.41;5026353;28;20029;-82
2023/06/04 02:53:50;;;;;;;2.95;1.52;;;;;;;11.26;71.45;101956.09;5059288;28;20023;-82
2023/06/04 02:56:15;;;;;;;3.80;1.30;;;;;;;11.23;71.78;101962.75;5042466;28;20041;-82
2023/06/04 02:58:55;;;;;;;2.90;1.63;;;;;;;11.18;70.98;101964.38;5043160;28;20040;-82
2023/06/04 03:01:22;;;;;;;3.83;1.50;;;;;;;11.14;72.75;101958.47;5059788;28;20456;-82
2023/06/04 03:03:48;;;;;;;2.20;1.30;;;;;;;11.10;72.30;101962.63;5076758;28;20523;-82
2023/06/04 03:06:14;;;;;;;7.80;1.52;;;;;;;11.07;73.30;101952.09;5076791;28;20115;-82
2023/06/04 03:08:40;;;;;;;6.27;1.70;;;;;;;11.04;73.10;101955.22;5042527;28;20033;-82
2023/06/04 03:11:06;;;;;;;3.30;1.45;;;;;;;11.00;73.15;101956.66;5058616;28;20037;-82
2023/06/04 03:13:32;;;;;;;3.70;1.30;;;;;;;10.99;73.36;101952.25;5076349;28;20032;-82
2023/06/04 03:16:00;;;;;;;4.63;1.87;;;;;;;10.98;73.23;101950.56;5058796;28;20036;-82
2023/06/04 03:18:26;;;;;;;2.67;1.40;;;;;;;10.96;73.49;101955.34;5042446;28;20035;-82
2023/06/04 03:20:52;;;;;;;4.20;1.45;;;;;;;10.96;73.66;101948.03;5042307;28;20376;-82
2023/06/04 03:23:18;;;;;;;5.70;1.60;;;;;;;10.92;72.85;101943.19;5042013;28;20384;-82
2023/06/04 03:25:44;;;;;;;4.77;1.47;;;;;;;10.92;73.24;101944.00;5041742;28;20465;-82
2023/06/04 03:28:09;;;;;;;2.95;1.50;;;;;;;10.87;73.66;101944.59;5041983;28;20099;-82
2023/06/04 03:30:35;;;;;;;3.93;1.77;;;;;;;10.86;73.72;101945.59;5058345;28;20025;-82
2023/06/04 03:33:00;;;;;;;5.47;1.60;;;;;;;10.82;73.13;101949.75;5026093;28;20052;-82
2023/06/04 03:35:26;;;;;;;3.58;1.58;;;;;;;10.81;73.84;101955.38;5058455;28;20091;-82
2023/06/04 03:37:51;;;;;;;2.23;1.50;;;;;;;10.77;74.31;101951.34;5058209;28;20040;-82
2023/06/04 03:40:16;;;;;;;4.33;1.40;;;;;;;10.75;74.89;101953.41;5041480;28;20033;-82
2023/06/04 03:42:42;;;;;;;2.63;1.60;;;;;;;10.72;75.45;101951.94;5076668;28;20468;-82
2023/06/04 03:45:08;;;;;;;5.63;1.55;;;;;;;10.72;74.80;101949.22;5058468;28;20035;-82
2023/06/04 03:47:33;;;;;;;2.47;1.40;;;;;;;10.74;75.53;101949.84;5057901;28;20385;-81
2023/06/04 03:49:59;;;;;;;4.80;1.95;;;;;;;10.75;76.28;101953.41;5042021;28;20029;-82
2023/06/04 03:52:24;;;;;;;3.07;1.73;;;;;;;10.75;74.60;101954.25;5041611;28;20465;-82
2023/06/04 03:54:49;;;;;;;5.70;1.50;;;;;;;10.75;74.53;101954.25;5025153;28;20024;-82
2023/06/04 03:57:15;;;;;;;6.37;1.53;;;;;;;10.75;74.52;101954.25;5076210;28;20047;-82
2023/06/04 03:59:40;;;;;;;3.17;1.57;;;;;;;10.77;74.67;101951.34;5058206;28;20037;-82
2023/06/04 04:02:06;;;;;;;3.22;1.60;;;;;;;10.77;74.10;101957.63;5025259;28;20425;-82
2023/06/04 04:04:33;;;;;;;6.63;1.80;;;;;;;10.80;74.52;101962.66;5041774;28;20452;-82
2023/06/04 04:07:01;;;;;;;4.80;1.50;;;;;;;10.81;74.09;101952.66;5076034;28;20032;-82
2023/06/04 04:09:27;;;;;;;4.32;1.80;;;;;;;10.80;74.76;101951.81;5057601;28;20028;-82
2023/06/04 04:11:52;;;;;;;4.60;1.70;;;;;;;10.81;74.39;101956.22;5041113;28;20037;-82
2023/06/04 04:14:18;;;;;;;3.73;1.70;;;;;;;10.83;74.46;101951.41;5057646;28;20119;-82
2023/06/04 04:16:46;;;;;;;4.03;1.73;;;;;;;10.86;73.97;101961.06;5040753;28;20384;-81
2023/06/04 04:19:12;;;;;;;4.55;1.83;;;;;;;10.87;74.14;101958.16;5057935;28;20037;-81
2023/06/04 04:21:38;;;;;;;4.88;1.52;;;;;;;10.91;73.96;101960.50;5057835;28;20039;-81
2023/06/04 04:24:04;;;;;;;2.20;1.33;;;;;;;10.94;73.94;101960.09;5024558;28;20063;-81
2023/06/04 04:26:29;;;;;;;3.60;1.73;;;;;;;10.96;73.55;101967.03;5050901;28;20053;-81
2023/06/04 04:28:59;;;;;;;3.88;1.98;;;;;;;10.98;73.24;101958.69;5020768;28;20029;-81
2023/06/04 04:31:30;;;;;;;5.75;1.70;;;;;;;10.99;73.32;101955.78;5038074;28;20048;-81
2023/06/04 04:33:55;;;;;;;3.87;1.83;;;;;;;11.03;73.80;101957.09;5055175;28;20032;-81
2023/06/04 04:36:21;;;;;;;5.65;1.98;;;;;;;11.07;73.28;101957.53;5037289;28;20377;-81
2023/06/04 04:38:53;;;;;;;5.03;1.87;;;;;;;11.10;73.40;101959.91;5037169;28;20025;-82
2023/06/04 04:41:20;;;;;;;3.38;1.58;;;;;;;11.11;73.09;101958.84;5037498;28;20083;-81
2023/06/04 04:43:46;;;;;;;5.50;1.63;;;;;;;11.14;72.75;101968.50;5054902;28;20183;-81
2023/06/04 04:46:11;;;;;;;3.07;1.60;;;;;;;11.18;72.75;101965.19;5004277;28;20541;-82
2023/06/04 04:48:38;;;;;;;5.50;1.90;;;;;;;11.19;73.15;101964.19;5054572;28;20037;-81
2023/06/04 04:51:03;;;;;;;3.42;1.60;;;;;;;11.24;73.12;101971.75;5037255;28;20462;-82
2023/06/04 04:53:29;;;;;;;4.13;1.80;;;;;;;11.28;73.61;101973.06;5054527;28;20029;-82
2023/06/04 04:55:54;;;;;;;4.57;1.70;;;;;;;11.31;73.49;101972.66;5036694;28;20469;-82
2023/06/04 04:58:20;;;;;;;2.85;1.50;;;;;;;11.37;72.67;101971.06;5036564;28;20029;-82
2023/06/04 05:00:47;;;;;;;3.77;1.90;;;;;;;11.40;72.13;101963.34;5055061;28;20515;-82
2023/06/04 05:03:13;;;;;;;4.65;1.80;;;;;;;11.44;71.86;101952.94;5020416;28;20593;-82
2023/06/04 05:05:38;;;;;;;6.00;1.70;;;;;;;11.48;72.14;101965.09;5036338;28;20033;-81
2023/06/04 05:08:04;;;;;;;3.13;1.70;;;;;;;11.52;71.10;101963.66;5036464;28;20029;-82
2023/06/04 05:10:30;;;;;;;2.87;1.63;;;;;;;11.55;70.97;101970.59;5036705;28;20033;-82
2023/06/04 05:13:00;;;;;;;4.70;1.73;;;;;;;11.56;71.08;101970.41;5036604;28;20033;-82
2023/06/04 05:15:26;;;;;;;5.60;1.80;;;;;;;11.62;71.92;101978.81;5036833;28;20116;-81
2023/06/04 05:17:53;;;;;;;3.97;1.67;;;;;;;11.65;71.99;101976.56;5054042;28;20104;-81
2023/06/04 05:20:20;;;;;;;4.70;1.63;;;;;;;11.71;71.51;101978.47;5036325;28;20021;-81
2023/06/04 05:22:46;;;;;;;5.50;1.73;;;;;;;11.75;72.08;101979.78;5054030;28;20107;-83
2023/06/04 05:25:12;;;;;;;4.13;1.70;;;;;;;11.82;71.36;101982.53;5036613;28;20453;-84
2023/06/04 05:27:38;;;;;;;4.27;1.80;;;;;;;11.88;70.60;101973.59;5032041;28;20069;-85
2023/06/04 05:30:04;;;;;;;5.45;2.03;;;;;;;11.98;70.40;101984.16;5036398;28;20043;-84
2023/06/04 05:32:30;;;;;;;6.97;1.80;;;;;;;12.04;70.01;101980.66;5019478;28;20037;-84
2023/06/04 05:34:57;;;;;;;3.33;1.70;;;;;;;12.11;69.97;101978.00;5019986;28;20341;-84
2023/06/04 05:37:29;;;;;;;3.90;1.98;;;;;;;12.19;69.59;101972.41;5054021;28;20037;-83
2023/06/04 05:39:57;;;;;;;3.58;1.67;;;;;;;12.27;69.86;101972.25;5036366;28;20025;-83
2023/06/04 05:42:23;;;;;;;5.68;1.92;;;;;;;12.33;69.06;101972.47;5035601;28;20033;-84
2023/06/04 05:44:49;;;;;;;4.35;1.67;;;;;;;12.41;68.00;101967.72;5052953;28;20060;-83
2023/06/04 05:47:16;;;;;;;2.77;1.60;;;;;;;12.48;67.88;101969.66;5053504;28;20041;-84
2023/06/04 05:49:42;;;;;;;3.85;1.63;;;;;;;12.55;68.52;101971.38;5036499;28;20041;-84
2023/06/04 05:52:07;;;;;;;2.60;1.73;;;;;;;12.60;67.21;101973.50;5035924;28;20545;-83
2023/06/04 05:54:33;;;;;;;3.53;1.88;;;;;;;12.64;67.36;101972.88;5035809;28;20041;-84
2023/06/04 05:56:58;;;;;;;3.70;1.57;;;;;;;12.70;66.88;101973.97;5035922;28;20028;-83
2023/06/04 05:59:24;;;;;;;2.67;1.60;;;;;;;12.75;65.96;101973.34;5053851;28;20359;-83
2023/06/04 06:01:49;;;;;;;8.43;1.70;;;;;;;12.80;65.89;101968.16;5019319;28;20039;-83
2023/06/04 06:04:15;;;;;;;3.00;1.80;;;;;;;12.86;65.70;101975.50;5053570;28;20420;-84
2023/06/04 06:06:43;;;;;;;2.83;1.80;;;;;;;12.91;65.64;101974.91;5035800;28;20546;-84
2023/06/04 06:09:12;;;;;;;5.45;2.00;;;;;;;12.97;65.44;101983.06;5053587;28;20116;-84
2023/06/04 06:11:37;;;;;;;9.05;2.40;;;;;;;13.04;65.15;101972.22;5052398;28;20051;-83
2023/06/04 06:14:02;;;;;;;2.77;1.73;;;;;;;13.12;64.46;101977.50;5003205;28;20033;-83
2023/06/04 06:16:28;;;;;;;5.23;1.80;;;;;;;13.18;63.81;101983.97;5035952;28;20103;-85
2023/06/04 06:18:53;;;;;;;2.92;1.90;;;;;;;13.22;63.70;101982.53;5035668;28;20045;-84
2023/06/04 06:21:19;;;;;;;3.90;1.90;;;;;;;13.26;63.65;101981.09;5002866;28;20029;-86
2023/06/04 06:23:44;;;;;;;3.27;1.80;;;;;;;13.32;62.79;101982.97;5035405;28;20029;-85
2023/06/04 06:26:10;;;;;;;3.78;2.08;;;;;;;13.39;63.12;101985.78;5038983;28;20098;-83
2023/06/04 06:28:36;;;;;;;5.73;1.93;;;;;;;13.42;62.93;101985.34;5055009;28;20036;-85
2023/06/04 06:31:02;;;;;;;5.13;1.90;;;;;;;13.47;62.57;101985.56;5055757;28;20029;-84
2023/06/04 06:33:27;;;;;;;5.68;2.00;;;;;;;13.56;61.17;101994.38;5038833;28;20132;-84
2023/06/04 06:35:53;;;;;;;5.28;1.85;;;;;;;13.61;61.58;101994.63;5055371;28;20468;-84
2023/06/04 06:38:18;;;;;;;8.90;1.80;;;;;;;13.68;61.69;101997.34;5073369;28;20037;-84
2023/06/04 06:40:44;;;;;;;3.40;1.80;;;;;;;13.73;61.15;101992.09;5055502;28;20029;-84
2023/06/04 06:43:10;;;;;;;4.33;2.10;;;;;;;13.79;60.50;101995.88;5072962;28;20119;-84
2023/06/04 06:45:36;;;;;;;5.65;2.00;;;;;;;13.85;61.42;101997.78;5053420;28;20037;-83
2023/06/04 06:48:01;;;;;;;2.22;1.50;;;;;;;13.90;60.71;101997.97;5038568;28;20028;-84
2023/06/04 06:50:26;;;;;;;2.20;1.63;;;;;;;13.98;60.12;101999.66;5039131;28;20098;-85
2023/06/04 06:52:52;;;;;;;4.83;1.80;;;;;;;14.05;59.21;101997.75;5038471;28;20114;-85
2023/06/04 06:55:17;;;;;;;3.10;1.70;;;;;;;14.14;58.92;102006.59;5073161;28;20538;-84
2023/06/04 06:57:44;;;;;;;6.93;2.00;;;;;;;14.19;58.53;102007.63;5072876;28;20043;-84
2023/06/04 07:00:10;;;;;;;4.07;2.00;;;;;;;14.25;58.39;102007.84;5038534;28;20029;-84
2023/06/04 07:02:35;;;;;;;3.70;1.98;;;;;;;14.34;59.61;102014.75;5054594;28;20035;-84
2023/06/04 07:05:01;;;;;;;3.37;2.13;;;;;;;14.42;59.12;102013.69;5038377;28;20401;-84
2023/06/04 07:07:26;;;;;;;3.45;2.00;;;;;;;14.48;58.78;102010.09;5055296;28;20469;-84
2023/06/04 07:09:52;;;;;;;3.23;1.60;;;;;;;14.57;56.68;102014.28;5055699;28;20035;-83
2023/06/04 07:12:17;;;;;;;5.07;1.90;;;;;;;14.64;56.61;102017.88;5073295;28;20036;-83
2023/06/04 07:14:43;;;;;;;7.05;2.22;;;;;;;14.69;55.93;102022.69;5072903;28;20358;-83
2023/06/04 07:17:08;;;;;;;4.00;2.00;;;;;;;14.77;56.42;102017.00;5072961;28;20107;-83
2023/06/04 07:19:33;;;;;;;5.93;2.00;;;;;;;14.85;55.23;102018.66;5038301;28;20035;-84
2023/06/04 07:21:59;;;;;;;3.23;1.90;;;;;;;14.91;54.89;102017.78;5058092;28;20108;-84
2023/06/04 07:24:24;;;;;;;6.50;2.00;;;;;;;14.98;54.69;102015.03;5059073;28;20453;-84
2023/06/04 07:26:50;;;;;;;3.47;2.10;;;;;;;15.04;54.10;102020.50;5058599;28;20057;-85
2023/06/04 07:29:16;;;;;;;4.73;2.10;;;;;;;15.11;53.91;102016.88;5058426;28;20029;-84
2023/06/04 07:31:41;;;;;;;4.07;1.98;;;;;;;15.19;53.74;102016.63;5076468;28;20028;-83
2023/06/04 07:34:07;;;;;;;3.80;1.83;;;;;;;15.24;52.33;102006.72;5058094;28;20043;-85
2023/06/04 07:36:32;;;;;;;4.20;2.20;;;;;;;15.30;52.35;102007.75;5075913;28;20099;-84
2023/06/04 07:39:00;;;;;;;4.28;2.13;;;;;;;15.38;52.05;102012.09;5076384;28;20033;-84
2023/06/04 07:41:26;;;;;;;5.47;2.22;;;;;;;15.44;52.48;102008.47;5042381;28;20423;-84
2023/06/04 07:43:52;;;;;;;7.00;2.00;;;;;;;15.54;52.22;102013.47;5041124;28;20036;-84
2023/06/04 07:46:18;;;;;;;3.45;1.83;;;;;;;15.66;51.82;102008.16;5058807;28;20035;-83
2023/06/04 07:48:45;;;;;;;6.65;2.55;;;;;;;15.77;51.09;102016.47;5041621;28;20036;-84
2023/06/04 07:51:11;;;;;;;4.20;1.90;;;;;;;15.87;52.19;102009.69;5041400;28;20366;-83
2023/06/04 07:53:37;;;;;;;3.53;2.10;;;;;;;15.96;52.06;102008.38;5075849;28;20115;-84
2023/06/04 07:56:03;;;;;;;5.93;2.00;;;;;;;16.05;50.16;102014.41;5041517;28;20029;-82
2023/06/04 07:58:29;;;;;;;6.50;2.10;;;;;;;16.12;48.90;102012.44;5057728;28;20037;-83
2023/06/04 08:00:55;;;;;;;4.10;2.00;;;;;;;16.19;49.02;102013.22;5057480;28;20511;-84
2023/06/04 08:03:21;;;;;;;3.60;1.80;;;;;;;16.24;49.00;102012.53;5076271;28;20290;-84
2023/06/04 08:05:46;;;;;;;5.85;2.17;;;;;;;16.30;49.71;102014.41;5057405;28;20035;-85
2023/06/04 08:08:11;;;;;;;3.80;2.00;;;;;;;16.41;48.93;102010.06;5058067;28;20032;-84
2023/06/04 08:10:39;;;;;;;9.60;2.07;;;;;;;16.57;49.01;102016.88;5024702;28;20029;-84
2023/06/04 08:13:04;;;;;;;2.92;1.75;;;;;;;16.67;46.12;102015.25;5041175;28;20119;-84
2023/06/04 08:15:30;;;;;;;3.93;2.00;;;;;;;16.78;45.96;102007.34;5040948;28;20067;-84
2023/06/04 08:17:56;;;;;;;3.22;1.80;;;;;;;16.88;44.42;102010.41;5041418;28;20033;-85
2023/06/04 08:20:24;;;;;;;7.87;1.73;;;;;;;16.95;43.59;102016.66;5074909;28;20188;-84
2023/06/04 08:22:49;;;;;;;3.30;1.90;;;;;;;17.02;43.65;102008.34;5057710;28;20514;-84
2023/06/04 08:25:15;;;;;;;2.57;1.70;;;;;;;17.11;44.92;102017.94;5057259;28;20033;-85
2023/06/04 08:27:42;;;;;;;6.30;2.00;;;;;;;17.25;44.47;102015.84;5057428;28;20055;-84
2023/06/04 08:30:08;;;;;;;2.42;1.60;;;;;;;17.39;43.19;102019.25;5056848;28;20040;-85
2023/06/04 08:32:34;;;;;;;3.40;1.70;;;;;;;17.43;42.90;102011.41;5074281;28;20047;-86
2023/06/04 08:34:59;;;;;;;2.97;1.73;;;;;;;17.52;43.05;102020.97;5057562;28;20032;-85
2023/06/04 08:37:25;;;;;;;3.03;1.83;;;;;;;17.58;42.56;102013.69;5074788;28;20075;-85
2023/06/04 08:39:51;;;;;;;3.72;1.60;;;;;;;17.65;42.45;102009.78;5057619;28;20055;-85
2023/06/04 08:42:31;;;;;;;4.97;1.57;;;;;;;17.82;41.71;102006.34;5040834;28;20124;-84
2023/06/04 08:44:57;;;;;;;3.33;1.50;;;;;;;17.97;40.43;102005.97;5074797;28;20020;-84
2023/06/04 08:47:28;;;;;;;2.85;1.45;;;;;;;18.11;39.79;102015.63;5074591;28;20037;-84
2023/06/04 08:49:58;;;;;;;3.08;1.45;;;;;;;18.23;40.32;102011.00;5075177;28;20033;-84
2023/06/04 08:52:24;;;;;;;4.13;1.33;;;;;;;18.38;39.05;102015.13;5056564;28;20037;-84
2023/06/04 08:54:53;;;;;;;2.90;1.35;;;;;;;18.49;39.32;102016.22;5056634;28;20116;-84
2023/06/04 08:57:19;;;;;;;5.15;1.30;;;;;;;18.63;39.17;102014.06;5040608;28;20063;-84
2023/06/04 08:59:48;;;;;;;1.83;1.23;;;;;;;18.71;38.02;102017.28;5056700;28;20068;-85
2023/06/04 09:02:14;;;;;;;3.65;1.10;;;;;;;18.82;36.89;102022.97;5056615;28;20033;-83
2023/06/04 09:04:40;;;;;;;4.25;1.35;;;;;;;18.93;36.51;102024.91;5039940;28;20111;-82
2023/06/04 09:07:08;;;;;;;5.07;1.30;;;;;;;19.04;36.32;102024.03;5039932;28;20040;-84
2023/06/04 09:09:38;;;;;;;3.13;1.30;;;;;;;19.15;35.06;102029.72;5074413;28;20095;-84
2023/06/04 09:12:10;;;;;;;2.75;1.00;;;;;;;19.28;34.89;102021.19;5056443;28;20128;-83
2023/06/04 09:14:36;;;;;;;3.53;1.00;;;;;;;19.39;32.89;102017.56;5056419;28;20115;-84
2023/06/04 09:17:03;;;;;;;2.10;1.13;;;;;;;19.50;33.51;102023.25;5040122;28;20124;-84
2023/06/04 09:19:29;;;;;;;2.13;1.10;;;;;;;19.58;33.05;102020.94;5074318;28;20033;-83
2023/06/04 09:21:55;;;;;;;3.63;1.00;;;;;;;19.76;32.28;102025.38;5023296;28;20389;-84
2023/06/04 09:24:23;;;;;;;2.40;1.38;;;;;;;19.91;32.65;102027.59;5056253;28;20112;-84
2023/06/04 09:26:50;;;;;;;3.35;1.20;;;;;;;20.05;32.80;102025.34;5055842;28;20439;-83
2023/06/04 09:29:15;;;;;;;1.38;1.00;;;;;;;20.18;32.07;102026.09;5056257;28;20036;-84
2023/06/04 09:31:44;;;;;;;3.13;1.10;;;;;;;20.28;32.25;102023.50;5056152;28;20555;-84
2023/06/04 09:34:09;;;;;;;2.65;1.00;;;;;;;20.38;31.46;102012.63;5056048;28;20029;-83
2023/06/04 09:36:36;;;;;;;2.88;0.98;;;;;;;20.46;31.57;102023.22;5074474;28;20082;-83
2023/06/04 09:39:05;;;;;;;2.00;0.97;;;;;;;20.58;31.78;102017.59;5073868;28;20027;-85
2023/06/04 09:41:30;;;;;;;3.13;1.08;;;;;;;20.72;30.78;102018.09;5056377;28;20020;-83
2023/06/04 09:44:03;;;;;;;3.40;1.10;;;;;;;20.84;31.32;102017.97;5038918;28;20114;-84
2023/06/04 09:46:30;;;;;;;2.63;1.13;;;;;;;21.00;31.23;102022.56;5056532;28;20271;-84
2023/06/04 09:49:03;;;;;;;4.53;1.33;;;;;;;21.11;31.15;102022.69;5073795;28;20028;-84
2023/06/04 09:51:30;;;;;;;3.05;1.10;;;;;;;21.23;29.95;102012.38;5073810;28;20495;-84
2023/06/04 09:53:56;;;;;;;4.32;1.45;;;;;;;21.32;29.81;102015.50;5039612;28;20039;-84
2023/06/04 09:56:22;;;;;;;4.07;1.30;;;;;;;21.45;30.22;102015.09;5055921;28;20483;-84
2023/06/04 09:58:49;;;;;;;4.37;1.30;;;;;;;21.60;30.73;102013.56;5073327;28;20036;-88
2023/06/04 10:01:15;;;;;;;1.83;1.00;;;;;;;21.73;29.88;102007.63;5039127;28;20369;-84
2023/06/04 10:03:46;;;;;;;2.03;1.00;;;;;;;21.87;30.31;102005.28;5073264;28;20040;-84
2023/06/04 10:06:14;;;;;;;2.42;1.17;;;;;;;21.92;29.29;102007.25;5074214;28;20032;-84
2023/06/04 10:08:42;;;;;;;3.40;0.83;;;;;;;21.98;29.67;102004.25;5055541;28;20385;-84
2023/06/04 10:11:11;;;;;;;1.88;1.10;;;;;;;22.11;29.81;102011.25;5073832;28;20072;-84
2023/06/04 10:14:02;;;;;;;2.75;1.10;;;;;;;22.28;30.07;102016.63;5073257;28;20082;-84
2023/06/04 10:16:30;;;;;;;1.55;0.93;;;;;;;22.41;28.88;102007.03;5064276;28;20079;-84
2023/06/04 10:18:57;;;;;;;1.67;1.10;;;;;;;22.57;28.62;102008.81;5074031;28;20032;-85
2023/06/04 10:21:23;;;;;;;3.70;1.03;;;;;;;22.66;28.21;102013.81;5073223;28;20028;-84
2023/06/04 10:23:50;;;;;;;1.58;0.80;;;;;;;22.83;28.71;102010.88;5055255;28;20044;-87
2023/06/04 10:26:16;;;;;;;2.10;1.10;;;;;;;22.95;28.87;102001.22;5050575;28;20073;-89
2023/06/04 10:28:43;;;;;;;2.83;1.10;;;;;;;23.27;28.27;102004.97;5035147;28;20112;-85
2023/06/04 10:31:12;;;;;;;2.58;1.30;;;;;;;23.32;28.72;102006.91;5035271;28;20492;-84
2023/06/04 10:33:39;;;;;;;3.20;0.93;;;;;;;23.51;28.02;102004.44;5035252;28;20057;-84
2023/06/04 10:36:21;;;;;;;2.38;0.90;;;;;;;23.77;27.73;102013.59;5053290;28;20104;-84
2023/06/04 10:38:52;;;;;;;1.65;0.95;;;;;;;23.93;26.50;102001.44;5053257;28;20021;-84
2023/06/04 10:41:22;;;;;;;3.58;1.00;;;;;;;23.92;25.79;102005.31;5036226;28;20033;-84
2023/06/04 10:43:51;;;;;;;1.58;0.90;;;;;;;24.06;26.07;102007.53;5053274;28;20110;-85
2023/06/04 10:46:19;;;;;;;2.33;1.07;;;;;;;24.19;25.87;102000.59;5034938;28;20044;-84
2023/06/04 10:48:49;;;;;;;3.20;1.08;;;;;;;24.47;25.85;102004.69;5035109;28;20032;-84
2023/06/04 10:51:32;;;;;;;2.78;1.10;;;;;;;24.78;26.25;102004.59;5035208;28;20084;-84
2023/06/04 10:53:59;;;;;;;2.15;1.10;;;;;;;25.00;24.72;101993.13;5036008;28;20434;-84
2023/06/04 10:56:29;;;;;;;4.30;1.27;;;;;;;25.17;24.60;102012.19;5037847;28;20432;-84
2023/06/04 10:58:55;;;;;;;2.87;1.00;;;;;;;25.50;24.37;102013.41;5022587;28;20029;-86
2023/06/04 11:01:31;;;;;;;4.07;1.20;;;;;;;25.58;25.19;102000.00;5056766;28;20112;-84
2023/06/04 11:03:57;;;;;;;2.40;1.30;;;;;;;25.86;25.24;102004.75;5023133;28;20413;-85
2023/06/04 11:06:27;;;;;;;2.70;1.15;;;;;;;26.20;24.48;101997.53;5022275;28;20092;-84
2023/06/04 11:09:05;;;;;;;3.33;1.20;;;;;;;26.42;24.90;101994.25;5056767;28;20124;-85
2023/06/04 11:11:31;;;;;;;2.83;1.10;;;;;;;26.60;23.67;101996.25;5038782;28;20032;-85
2023/06/04 11:14:08;;;;;;;1.90;1.30;;;;;;;26.92;24.37;102003.13;5056192;28;20409;-85
2023/06/04 11:16:34;;;;;;;3.30;1.20;;;;;;;27.73;22.67;101993.03;5038818;28;20029;-85
2023/06/04 11:18:59;;;;;;;3.03;1.20;;;;;;;29.31;20.98;101990.22;5038652;28;20105;-85
2023/06/04 11:21:25;;;;;;;3.80;1.20;;;;;;;31.71;18.92;101988.47;5039015;28;20107;-85
2023/06/04 11:24:00;;;;;;;2.08;1.10;;;;;;;34.41;17.75;101976.44;5055974;28;20031;-85